Time;durP1;ratioP1;P1;durP2;ratioP2;P2;SDS_P1;SDS_P2;PMS_P1;PMS_P2;Temp;Humidity;BMP_temperature;BMP_pressure;BME280_temperature;BME280_humidity;BME280_pressure;Samples;Min_cycle;Max_cycle;Signal;HPM_P1;HPM_P2
2022/12/12 00:01:15;;;;;;;;;;;;;;;;;;5045408;28;20700;-83
2022/12/12 00:04:01;;;;;;;;;;;;;;;;;;5035363;28;19924;-84
2022/12/12 00:06:48;;;;;;;;;;;;;;;;;;5044993;28;19913;-83
2022/12/12 00:09:34;;;;;;;;;;;;;;;;;;5042875;28;19925;-83
2022/12/12 00:12:21;;;;;;;;;;;;;;;;;;5039042;28;19943;-83
2022/12/12 00:15:07;;;;;;;;;;;;;;;;;;5039778;28;19923;-83
2022/12/12 00:17:55;;;;;;;;;;;;;;;;;;5044374;28;19912;-80
2022/12/12 00:20:41;;;;;;;;;;;;;;;;;;5032288;28;20438;-79
2022/12/12 00:23:28;;;;;;;;;;;;;;;;;;5043717;28;19919;-80
2022/12/12 00:26:14;;;;;;;;;;;;;;;;;;5045926;28;19940;-78
2022/12/12 00:29:01;;;;;;;;;;;;;;;;;;5039817;28;19924;-79
2022/12/12 00:31:47;;;;;;;;;;;;;;;;;;5044639;28;19912;-78
2022/12/12 00:34:34;;;;;;;;;;;;;;;;;;5032488;28;19917;-79
2022/12/12 00:37:20;;;;;;;;;;;;;;;;;;5031126;28;19917;-79
2022/12/12 00:40:06;;;;;;;;;;;;;;;;;;5030965;28;19917;-79
2022/12/12 00:42:53;;;;;;;;;;;;;;;;;;5030609;28;19923;-79
2022/12/12 00:45:39;;;;;;;;;;;;;;;;;;5049183;28;20020;-81
2022/12/12 00:48:26;;;;;;;;;;;;;;;;;;5043632;28;19917;-82
2022/12/12 00:51:12;;;;;;;;;;;;;;;;;;5045178;28;19943;-82
2022/12/12 00:53:59;;;;;;;;;;;;;;;;;;5042839;28;19917;-83
2022/12/12 00:56:45;;;;;;;;;;;;;;;;;;5046415;28;19912;-81
2022/12/12 00:59:32;;;;;;;;;;;;;;;;;;5040167;28;20698;-82
2022/12/12 01:02:19;;;;;;;;;;;;;;;;;;5035536;28;19924;-83
2022/12/12 01:05:06;;;;;;;;;;;;;;;;;;5041032;28;19920;-81
2022/12/12 01:07:52;;;;;;;;;;;;;;;;;;5031555;28;19920;-80
2022/12/12 01:10:39;;;;;;;;;;;;;;;;;;5043558;28;19932;-82
2022/12/12 01:13:25;;;;;;;;;;;;;;;;;;5031027;28;19909;-81
2022/12/12 01:16:12;;;;;;;;;;;;;;;;;;5035836;28;19924;-80
2022/12/12 01:18:59;;;;;;;;;;;;;;;;;;5042897;28;19924;-82
2022/12/12 01:21:45;;;;;;;;;;;;;;;;;;5041447;28;19916;-81
2022/12/12 01:24:32;;;;;;;;;;;;;;;;;;5035174;28;19927;-81
2022/12/12 01:27:18;;;;;;;;;;;;;;;;;;5043129;28;19987;-82
2022/12/12 01:30:05;;;;;;;;;;;;;;;;;;5040059;28;19921;-81
2022/12/12 01:32:51;;;;;;;;;;;;;;;;;;5039611;28;19921;-82
2022/12/12 01:35:38;;;;;;;;;;;;;;;;;;5034409;28;19920;-80
2022/12/12 01:38:24;;;;;;;;;;;;;;;;;;5037973;28;19939;-81
2022/12/12 01:41:11;;;;;;;;;;;;;;;;;;5036271;28;20288;-80
2022/12/12 01:43:58;;;;;;;;;;;;;;;;;;5035976;28;19917;-80
2022/12/12 01:46:44;;;;;;;;;;;;;;;;;;5044510;28;19919;-80
2022/12/12 01:49:32;;;;;;;;;;;;;;;;;;5044757;28;19929;-81
2022/12/12 01:52:19;;;;;;;;;;;;;;;;;;5037682;28;19913;-81
2022/12/12 01:55:06;;;;;;;;;;;;;;;;;;5052168;28;19923;-82
2022/12/12 01:57:52;;;;;;;;;;;;;;;;;;5049772;28;19916;-82
2022/12/12 02:00:39;;;;;;;;;;;;;;;;;;5042760;28;20307;-84
2022/12/12 02:03:25;;;;;;;;;;;;;;;;;;5042001;28;19913;-82
2022/12/12 02:06:12;;;;;;;;;;;;;;;;;;5040174;28;19913;-82
2022/12/12 02:08:58;;;;;;;;;;;;;;;;;;5035748;28;19917;-79
2022/12/12 02:11:45;;;;;;;;;;;;;;;;;;5036499;28;19913;-81
2022/12/12 02:14:33;;;;;;;;;;;;;;;;;;5037627;28;19916;-84
2022/12/12 02:17:19;;;;;;;;;;;;;;;;;;5028410;28;19917;-81
2022/12/12 02:20:05;;;;;;;;;;;;;;;;;;5038006;28;19920;-82
2022/12/12 02:22:52;;;;;;;;;;;;;;;;;;5052314;28;19913;-83
2022/12/12 02:25:39;;;;;;;;;;;;;;;;;;5043358;28;19944;-82
2022/12/12 02:28:26;;;;;;;;;;;;;;;;;;5046115;28;19927;-81
2022/12/12 02:31:13;;;;;;;;;;;;;;;;;;5054212;28;19917;-83
2022/12/12 02:33:59;;;;;;;;;;;;;;;;;;5056204;28;19917;-83
2022/12/12 02:36:46;;;;;;;;;;;;;;;;;;5057109;28;19923;-84
2022/12/12 02:39:32;;;;;;;;;;;;;;;;;;5052691;28;19921;-83
2022/12/12 02:42:19;;;;;;;;;;;;;;;;;;5060827;28;19909;-84
2022/12/12 02:45:05;;;;;;;;;;;;;;;;;;5056397;28;19913;-82
2022/12/12 02:47:52;;;;;;;;;;;;;;;;;;5062059;28;19913;-83
2022/12/12 02:50:38;;;;;;;;;;;;;;;;;;5047290;28;19920;-82
2022/12/12 02:53:25;;;;;;;;;;;;;;;;;;5038599;28;19920;-82
2022/12/12 02:56:11;;;;;;;;;;;;;;;;;;5042831;28;19924;-82
2022/12/12 02:58:58;;;;;;;;;;;;;;;;;;5053402;28;19916;-83
2022/12/12 03:01:44;;;;;;;;;;;;;;;;;;5037115;28;19978;-82
2022/12/12 03:07:48;;;;;;;;;;;;;;;;;;5048944;28;19913;-81
2022/12/12 03:10:34;;;;;;;;;;;;;;;;;;5047740;28;19921;-83
2022/12/12 03:13:21;;;;;;;;;;;;;;;;;;5042155;28;19917;-84
2022/12/12 03:16:08;;;;;;;;;;;;;;;;;;5044911;28;19966;-84
2022/12/12 03:18:54;;;;;;;;;;;;;;;;;;5047297;28;19923;-82
2022/12/12 03:21:41;;;;;;;;;;;;;;;;;;5037203;28;19916;-84
2022/12/12 03:24:27;;;;;;;;;;;;;;;;;;5050848;28;19990;-83
2022/12/12 03:27:14;;;;;;;;;;;;;;;;;;5036183;28;20400;-82
2022/12/12 03:30:00;;;;;;;;;;;;;;;;;;5036636;28;19917;-81
2022/12/12 03:32:47;;;;;;;;;;;;;;;;;;5039057;28;20506;-82
2022/12/12 04:37:43;;;;;;;;;;;;;;;;;;5025455;28;19928;-79
2022/12/12 04:40:30;;;;;;;;;;;;;;;;;;5015409;28;19916;-78
2022/12/12 04:43:16;;;;;;;;;;;;;;;;;;5010037;28;19923;-80
2022/12/12 04:46:03;;;;;;;;;;;;;;;;;;5027062;28;19914;-80
2022/12/12 04:48:49;;;;;;;;;;;;;;;;;;5027519;28;19917;-82
2022/12/12 04:51:36;;;;;;;;;;;;;;;;;;5022527;28;20391;-81
2022/12/12 04:54:23;;;;;;;;;;;;;;;;;;5024839;28;19920;-82
2022/12/12 04:57:09;;;;;;;;;;;;;;;;;;5027294;28;20806;-78
2022/12/12 04:59:56;;;;;;;;;;;;;;;;;;5025112;28;19909;-79
2022/12/12 05:02:42;;;;;;;;;;;;;;;;;;5025157;28;19940;-79
2022/12/12 05:05:29;;;;;;;;;;;;;;;;;;5021123;28;19917;-80
2022/12/12 05:08:15;;;;;;;;;;;;;;;;;;5024226;28;20320;-78
2022/12/12 05:11:02;;;;;;;;;;;;;;;;;;5026668;28;19932;-79
2022/12/12 05:13:48;;;;;;;;;;;;;;;;;;5026001;28;20246;-81
2022/12/12 05:16:36;;;;;;;;;;;;;;;;;;5031856;28;19913;-82
2022/12/12 05:19:23;;;;;;;;;;;;;;;;;;5025824;28;20369;-80
2022/12/12 05:22:09;;;;;;;;;;;;;;;;;;5013105;28;19913;-78
2022/12/12 05:24:55;;;;;;;;;;;;;;;;;;5021700;28;19913;-78
2022/12/12 05:27:42;;;;;;;;;;;;;;;;;;5012150;28;20486;-79
2022/12/12 05:30:29;;;;;;;;;;;;;;;;;;5025160;28;19928;-79
2022/12/12 05:33:15;;;;;;;;;;;;;;;;;;5016292;28;19909;-79
2022/12/12 05:36:02;;;;;;;;;;;;;;;;;;5027258;28;19936;-79
2022/12/12 05:38:48;;;;;;;;;;;;;;;;;;5046395;28;19919;-80
2022/12/12 05:41:35;;;;;;;;;;;;;;;;;;5045111;28;19920;-78
2022/12/12 05:44:21;;;;;;;;;;;;;;;;;;5040724;28;19913;-79
2022/12/12 05:47:08;;;;;;;;;;;;;;;;;;5030784;28;20363;-79
2022/12/12 05:49:54;;;;;;;;;;;;;;;;;;5028688;28;19928;-82
2022/12/12 05:52:41;;;;;;;;;;;;;;;;;;5035755;28;19913;-82
2022/12/12 05:55:27;;;;;;;;;;;;;;;;;;5038696;28;19949;-83
2022/12/12 05:58:14;;;;;;;;;;;;;;;;;;5042154;28;19924;-83
2022/12/12 06:01:00;;;;;;;;;;;;;;;;;;5038998;28;19919;-81
2022/12/12 06:03:47;;;;;;;;;;;;;;;;;;5027778;28;20299;-82
2022/12/12 06:06:33;;;;;;;;;;;;;;;;;;5041172;28;19916;-82
2022/12/12 06:09:20;;;;;;;;;;;;;;;;;;5047120;28;19924;-81
2022/12/12 06:12:06;;;;;;;;;;;;;;;;;;5045198;28;19920;-82
2022/12/12 06:14:53;;;;;;;;;;;;;;;;;;5036934;28;19913;-82
2022/12/12 06:17:39;;;;;;;;;;;;;;;;;;5030873;28;20679;-85
2022/12/12 06:20:29;;;;;;;;;;;;;;;;;;5031164;28;20369;-88
2022/12/12 06:23:16;;;;;;;;;;;;;;;;;;5036977;28;19913;-83
2022/12/12 06:26:03;;;;;;;;;;;;;;;;;;5040001;28;19924;-82
2022/12/12 06:28:49;;;;;;;;;;;;;;;;;;5045084;28;19912;-81
2022/12/12 06:31:36;;;;;;;;;;;;;;;;;;5042202;28;19916;-81
2022/12/12 06:34:25;;;;;;;;;;;;;;;;;;5044927;28;20318;-81
2022/12/12 06:37:11;;;;;;;;;;;;;;;;;;5037731;28;20114;-81
2022/12/12 06:39:58;;;;;;;;;;;;;;;;;;5032746;28;20407;-80
2022/12/12 06:42:44;;;;;;;;;;;;;;;;;;5038732;28;19915;-81
2022/12/12 06:45:31;;;;;;;;;;;;;;;;;;5038213;28;20376;-82
2022/12/12 06:48:17;;;;;;;;;;;;;;;;;;5032939;28;19924;-80
2022/12/12 06:51:04;;;;;;;;;;;;;;;;;;5020702;28;19928;-81
2022/12/12 06:53:51;;;;;;;;;;;;;;;;;;5019874;28;19920;-81
2022/12/12 06:56:37;;;;;;;;;;;;;;;;;;5031059;28;20024;-80
2022/12/12 06:59:24;;;;;;;;;;;;;;;;;;5029921;28;20624;-81
2022/12/12 07:02:11;;;;;;;;;;;;;;;;;;5040559;28;20448;-81
2022/12/12 07:04:57;;;;;;;;;;;;;;;;;;5042658;28;19920;-80
2022/12/12 07:07:44;;;;;;;;;;;;;;;;;;5040152;28;19919;-81
2022/12/12 07:10:30;;;;;;;;;;;;;;;;;;5033142;28;20046;-82
2022/12/12 07:13:17;;;;;;;;;;;;;;;;;;5046797;28;19913;-82
2022/12/12 07:16:03;;;;;;;;;;;;;;;;;;5041015;28;19913;-83
2022/12/12 07:18:50;;;;;;;;;;;;;;;;;;5029205;28;19921;-83
2022/12/12 07:21:37;;;;;;;;;;;;;;;;;;5042101;28;19913;-81
2022/12/12 07:24:24;;;;;;;;;;;;;;;;;;5042728;28;19924;-82
2022/12/12 07:27:10;;;;;;;;;;;;;;;;;;5041803;28;19920;-82
2022/12/12 07:29:57;;;;;;;;;;;;;;;;;;5049455;28;19931;-82
2022/12/12 07:32:43;;;;;;;;;;;;;;;;;;5049309;28;19920;-81
2022/12/12 07:35:30;;;;;;;;;;;;;;;;;;5039725;28;19909;-82
2022/12/12 07:38:16;;;;;;;;;;;;;;;;;;5032611;28;19944;-81
2022/12/12 07:41:03;;;;;;;;;;;;;;;;;;5037176;28;19917;-81
2022/12/12 07:43:51;;;;;;;;;;;;;;;;;;5043460;28;19927;-84
2022/12/12 07:46:37;;;;;;;;;;;;;;;;;;5036162;28;19927;-85
2022/12/12 07:49:24;;;;;;;;;;;;;;;;;;5039962;28;19940;-84
2022/12/12 07:52:11;;;;;;;;;;;;;;;;;;5045312;28;19913;-84
2022/12/12 07:54:57;;;;;;;;;;;;;;;;;;5045775;28;19917;-82
2022/12/12 07:57:44;;;;;;;;;;;;;;;;;;5043804;28;19916;-84
2022/12/12 08:00:30;;;;;;;;;;;;;;;;;;5041106;28;19921;-84
2022/12/12 08:03:17;;;;;;;;;;;;;;;;;;5040998;28;19929;-82
2022/12/12 08:06:03;;;;;;;;;;;;;;;;;;5048497;28;19916;-83
2022/12/12 08:08:50;;;;;;;;;;;;;;;;;;5044270;28;20880;-83
2022/12/12 08:11:38;;;;;;;;;;;;;;;;;;5035843;28;20281;-83
2022/12/12 08:14:25;;;;;;;;;;;;;;;;;;5032205;28;20312;-82
2022/12/12 08:17:11;;;;;;;;;;;;;;;;;;5042555;28;19928;-83
2022/12/12 08:19:58;;;;;;;;;;;;;;;;;;5041664;28;19921;-83
2022/12/12 08:22:44;;;;;;;;;;;;;;;;;;5040837;28;19920;-83
2022/12/12 08:25:32;;;;;;;;;;;;;;;;;;5044412;28;19913;-83
2022/12/12 08:28:18;;;;;;;;;;;;;;;;;;5044645;28;19924;-84
2022/12/12 08:31:05;;;;;;;;;;;;;;;;;;5047451;28;19939;-82
2022/12/12 08:33:54;;;;;;;;;;;;;;;;;;5053163;28;20285;-83
2022/12/12 08:36:42;;;;;;;;;;;;;;;;;;5054342;28;20657;-82
2022/12/12 08:39:29;;;;;;;;;;;;;;;;;;5047054;28;19917;-84
2022/12/12 08:42:15;;;;;;;;;;;;;;;;;;5048305;28;19912;-83
2022/12/12 08:45:02;;;;;;;;;;;;;;;;;;5056176;28;20385;-83
2022/12/12 08:47:48;;;;;;;;;;;;;;;;;;5043805;28;19923;-83
2022/12/12 08:50:35;;;;;;;;;;;;;;;;;;5057133;28;19920;-82
2022/12/12 08:53:21;;;;;;;;;;;;;;;;;;5059553;28;19896;-83
2022/12/12 08:56:08;;;;;;;;;;;;;;;;;;5055882;28;19913;-83
2022/12/12 08:58:54;;;;;;;;;;;;;;;;;;5047621;28;19913;-83
2022/12/12 09:01:41;;;;;;;;;;;;;;;;;;5054843;28;19921;-82
2022/12/12 09:04:27;;;;;;;;;;;;;;;;;;5061918;28;19919;-84
2022/12/12 09:07:13;;;;;;;;;;;;;;;;;;5043478;28;19917;-82
2022/12/12 09:10:00;;;;;;;;;;;;;;;;;;5053799;28;19924;-83
2022/12/12 09:12:47;;;;;;;;;;;;;;;;;;5048997;28;19909;-84
2022/12/12 09:15:35;;;;;;;;;;;;;;;;;;5053529;28;19917;-84
2022/12/12 09:18:22;;;;;;;;;;;;;;;;;;5040651;28;19913;-83
2022/12/12 09:21:08;;;;;;;;;;;;;;;;;;5042841;28;19917;-83
2022/12/12 09:23:55;;;;;;;;;;;;;;;;;;5045365;28;19913;-84
2022/12/12 09:26:41;;;;;;;;;;;;;;;;;;5041956;28;19913;-83
2022/12/12 09:29:28;;;;;;;;;;;;;;;;;;5040525;28;20387;-84
2022/12/12 09:32:14;;;;;;;;;;;;;;;;;;5034180;28;19920;-83
2022/12/12 09:35:01;;;;;;;;;;;;;;;;;;5045204;28;19916;-85
2022/12/12 09:37:47;;;;;;;;;;;;;;;;;;5042698;28;20392;-84
2022/12/12 09:40:34;;;;;;;;;;;;;;;;;;5037701;28;19917;-85
2022/12/12 09:43:20;;;;;;;;;;;;;;;;;;5035812;28;19909;-84
2022/12/12 09:46:07;;;;;;;;;;;;;;;;;;5039847;28;19916;-84
2022/12/12 09:48:53;;;;;;;;;;;;;;;;;;5043955;28;19923;-84
2022/12/12 09:51:40;;;;;;;;;;;;;;;;;;5038716;28;19928;-84
2022/12/12 09:54:27;;;;;;;;;;;;;;;;;;5042663;28;19923;-84
2022/12/12 09:57:14;;;;;;;;;;;;;;;;;;5038650;28;19917;-83
2022/12/12 10:00:00;;;;;;;;;;;;;;;;;;5043948;28;19921;-83
2022/12/12 10:02:47;;;;;;;;;;;;;;;;;;5047376;28;19912;-84
2022/12/12 10:05:34;;;;;;;;;;;;;;;;;;5028607;28;19927;-83
2022/12/12 10:08:20;;;;;;;;;;;;;;;;;;5031384;28;20701;-83
2022/12/12 10:11:48;;;;;;;;;;;;;;;;;;5028029;28;19928;-82
2022/12/12 10:14:13;;;;;;;;;;;;;;;;;;5038389;28;20390;-83
2022/12/12 10:17:00;;;;;;;;;;;;;;;;;;5038810;28;19920;-82
2022/12/12 10:19:49;;;;;;;;;;;;;;;;;;5035724;28;20376;-82
2022/12/12 10:22:35;;;;;;;;;;;;;;;;;;5048513;28;19909;-83
2022/12/12 10:25:22;;;;;;;;;;;;;;;;;;5031033;28;19909;-83
2022/12/12 10:28:08;;;;;;;;;;;;;;;;;;5040836;28;19917;-83
2022/12/12 10:30:55;;;;;;;;;;;;;;;;;;5037147;28;19927;-83
2022/12/12 10:33:41;;;;;;;;;;;;;;;;;;5037784;28;19962;-83
2022/12/12 10:36:28;;;;;;;;;;;;;;;;;;5038948;28;20388;-82
2022/12/12 10:39:14;;;;;;;;;;;;;;;;;;5044782;28;19913;-84
2022/12/12 10:42:01;;;;;;;;;;;;;;;;;;5035158;28;19913;-83
2022/12/12 10:44:47;;;;;;;;;;;;;;;;;;5032958;28;19924;-84
2022/12/12 10:47:34;;;;;;;;;;;;;;;;;;5038138;28;19917;-82
2022/12/12 10:50:21;;;;;;;;;;;;;;;;;;5050240;28;19921;-83
2022/12/12 10:53:08;;;;;;;;;;;;;;;;;;5043149;28;20391;-83
2022/12/12 10:55:54;;;;;;;;;;;;;;;;;;5036851;28;19935;-83
2022/12/12 10:58:41;;;;;;;;;;;;;;;;;;5029808;28;19909;-83
2022/12/12 11:01:27;;;;;;;;;;;;;;;;;;5037704;28;19913;-83
2022/12/12 11:04:14;;;;;;;;;;;;;;;;;;5036916;28;19939;-82
2022/12/12 11:07:01;;;;;;;;;;;;;;;;;;5045831;28;19920;-83
2022/12/12 11:09:47;;;;;;;;;;;;;;;;;;5045414;28;19953;-83
2022/12/12 11:12:34;;;;;;;;;;;;;;;;;;5050720;28;19916;-83
2022/12/12 11:15:20;;;;;;;;;;;;;;;;;;5043392;28;19909;-84
2022/12/12 11:18:07;;;;;;;;;;;;;;;;;;5032858;28;19912;-82
2022/12/12 11:20:53;;;;;;;;;;;;;;;;;;5034379;28;19927;-82
2022/12/12 11:23:40;;;;;;;;;;;;;;;;;;5046959;28;19923;-82
2022/12/12 11:26:27;;;;;;;;;;;;;;;;;;5035664;28;19913;-83
2022/12/12 11:29:13;;;;;;;;;;;;;;;;;;5047555;28;19921;-85
2022/12/12 11:32:00;;;;;;;;;;;;;;;;;;5032247;28;19921;-83
2022/12/12 11:34:46;;;;;;;;;;;;;;;;;;5046971;28;20011;-83
2022/12/12 11:37:33;;;;;;;;;;;;;;;;;;5047795;28;20300;-84
2022/12/12 11:40:19;;;;;;;;;;;;;;;;;;5050397;28;19954;-84
2022/12/12 11:43:05;;;;;;;;;;;;;;;;;;5040353;28;19936;-84
2022/12/12 11:45:52;;;;;;;;;;;;;;;;;;5049246;28;20399;-85
2022/12/12 11:48:38;;;;;;;;;;;;;;;;;;5045670;28;19916;-84
2022/12/12 11:51:25;;;;;;;;;;;;;;;;;;5023096;28;19924;-83
2022/12/12 11:54:11;;;;;;;;;;;;;;;;;;5035037;28;20261;-85
2022/12/12 11:57:00;;;;;;;;;;;;;;;;;;5046838;28;19923;-83
2022/12/12 11:59:47;;;;;;;;;;;;;;;;;;5040098;28;19916;-85
2022/12/12 12:02:33;;;;;;;;;;;;;;;;;;5035392;28;19936;-84
2022/12/12 12:05:20;;;;;;;;;;;;;;;;;;5043204;28;19917;-84
2022/12/12 12:08:06;;;;;;;;;;;;;;;;;;5038602;28;19913;-85
2022/12/12 12:10:53;;;;;;;;;;;;;;;;;;5037715;28;20238;-85
2022/12/12 12:13:39;;;;;;;;;;;;;;;;;;5044950;28;19913;-85
2022/12/12 12:16:26;;;;;;;;;;;;;;;;;;5050519;28;19936;-84
2022/12/12 12:19:12;;;;;;;;;;;;;;;;;;5042165;28;20384;-84
2022/12/12 12:21:59;;;;;;;;;;;;;;;;;;5050432;28;19917;-84
2022/12/12 12:24:45;;;;;;;;;;;;;;;;;;5049639;28;19920;-85
2022/12/12 12:27:32;;;;;;;;;;;;;;;;;;5048638;28;19916;-85
2022/12/12 12:30:18;;;;;;;;;;;;;;;;;;5052671;28;19916;-85
2022/12/12 12:33:04;;;;;;;;;;;;;;;;;;5048102;28;20296;-86
2022/12/12 12:35:51;;;;;;;;;;;;;;;;;;5047085;28;20014;-85
2022/12/12 12:38:37;;;;;;;;;;;;;;;;;;5048626;28;19944;-85
2022/12/12 12:41:24;;;;;;;;;;;;;;;;;;5048465;28;19921;-85
2022/12/12 12:44:10;;;;;;;;;;;;;;;;;;5033449;28;20304;-83
2022/12/12 12:46:57;;;;;;;;;;;;;;;;;;5048695;28;19913;-86
2022/12/12 12:49:44;;;;;;;;;;;;;;;;;;5045567;28;19932;-81
2022/12/12 12:52:30;;;;;;;;;;;;;;;;;;5048792;28;19915;-83
2022/12/12 12:55:17;;;;;;;;;;;;;;;;;;5052333;28;20220;-84
2022/12/12 12:58:03;;;;;;;;;;;;;;;;;;5051869;28;19915;-83
2022/12/12 13:00:50;;;;;;;;;;;;;;;;;;5051656;28;19912;-80
2022/12/12 13:03:36;;;;;;;;;;;;;;;;;;5045107;28;19931;-81
2022/12/12 13:06:23;;;;;;;;;;;;;;;;;;5038270;28;19927;-81
2022/12/12 13:09:09;;;;;;;;;;;;;;;;;;5041444;28;19917;-82
2022/12/12 13:11:56;;;;;;;;;;;;;;;;;;5049327;28;19925;-82
2022/12/12 13:14:42;;;;;;;;;;;;;;;;;;5045760;28;19947;-82
2022/12/12 13:17:29;;;;;;;;;;;;;;;;;;5041592;28;19909;-82
2022/12/12 13:20:15;;;;;;;;;;;;;;;;;;5040183;28;19919;-83
2022/12/12 13:23:02;;;;;;;;;;;;;;;;;;5048215;28;19916;-82
2022/12/12 13:25:48;;;;;;;;;;;;;;;;;;5039179;28;20410;-83
2022/12/12 13:28:35;;;;;;;;;;;;;;;;;;5036034;28;19908;-83
2022/12/12 13:31:21;;;;;;;;;;;;;;;;;;5045882;28;19921;-82
2022/12/12 13:34:08;;;;;;;;;;;;;;;;;;5031095;28;20697;-82
2022/12/12 13:36:54;;;;;;;;;;;;;;;;;;5039449;28;19925;-82
2022/12/12 13:39:40;;;;;;;;;;;;;;;;;;5041832;28;19909;-84
2022/12/12 13:42:27;;;;;;;;;;;;;;;;;;5039913;28;19920;-85
2022/12/12 13:45:13;;;;;;;;;;;;;;;;;;5037884;28;19917;-82
2022/12/12 13:48:00;;;;;;;;;;;;;;;;;;5038252;28;19909;-83
2022/12/12 13:50:46;;;;;;;;;;;;;;;;;;5043434;28;20360;-82
2022/12/12 13:53:33;;;;;;;;;;;;;;;;;;5047373;28;19913;-83
2022/12/12 13:56:19;;;;;;;;;;;;;;;;;;5032414;28;19913;-84
2022/12/12 13:59:06;;;;;;;;;;;;;;;;;;5048461;28;20656;-84
2022/12/12 14:01:52;;;;;;;;;;;;;;;;;;5045331;28;19920;-84
2022/12/12 14:04:39;;;;;;;;;;;;;;;;;;5043034;28;19936;-85
2022/12/12 14:07:25;;;;;;;;;;;;;;;;;;5043946;28;20361;-84
2022/12/12 14:10:12;;;;;;;;;;;;;;;;;;5030875;28;19928;-84
2022/12/12 14:12:58;;;;;;;;;;;;;;;;;;5025157;28;19920;-84
2022/12/12 14:15:45;;;;;;;;;;;;;;;;;;5043783;28;20373;-85
2022/12/12 14:18:31;;;;;;;;;;;;;;;;;;5039411;28;19909;-86
2022/12/12 14:21:18;;;;;;;;;;;;;;;;;;5041739;28;19940;-85
2022/12/12 14:24:05;;;;;;;;;;;;;;;;;;5049185;28;19923;-85
2022/12/12 14:26:52;;;;;;;;;;;;;;;;;;5038893;28;19919;-85
2022/12/12 14:29:38;;;;;;;;;;;;;;;;;;5042835;28;19913;-84
2022/12/12 14:32:25;;;;;;;;;;;;;;;;;;5043172;28;19928;-85
2022/12/12 14:35:12;;;;;;;;;;;;;;;;;;5047309;28;19920;-84
2022/12/12 14:37:58;;;;;;;;;;;;;;;;;;5045896;28;19931;-84
2022/12/12 14:40:44;;;;;;;;;;;;;;;;;;5046644;28;19916;-85
2022/12/12 14:43:31;;;;;;;;;;;;;;;;;;5043429;28;20364;-84
2022/12/12 14:46:18;;;;;;;;;;;;;;;;;;5036620;28;19917;-85
2022/12/12 14:49:04;;;;;;;;;;;;;;;;;;5033807;28;19935;-85
2022/12/12 14:51:51;;;;;;;;;;;;;;;;;;5039680;28;19931;-84
2022/12/12 14:54:37;;;;;;;;;;;;;;;;;;5043598;28;19916;-85
2022/12/12 14:57:24;;;;;;;;;;;;;;;;;;5046822;28;19946;-85
2022/12/12 15:00:10;;;;;;;;;;;;;;;;;;5043248;28;19913;-85
2022/12/12 15:02:57;;;;;;;;;;;;;;;;;;5032086;28;20384;-85
2022/12/12 15:05:44;;;;;;;;;;;;;;;;;;5040830;28;19913;-85
2022/12/12 15:08:30;;;;;;;;;;;;;;;;;;5030436;28;19909;-84
2022/12/12 15:11:17;;;;;;;;;;;;;;;;;;5037651;28;20277;-84
2022/12/12 15:14:03;;;;;;;;;;;;;;;;;;5048687;28;19916;-84
2022/12/12 15:16:50;;;;;;;;;;;;;;;;;;5038595;28;19921;-85
2022/12/12 15:19:36;;;;;;;;;;;;;;;;;;5043626;28;20344;-83
2022/12/12 15:22:23;;;;;;;;;;;;;;;;;;5045844;28;19917;-84
2022/12/12 15:25:09;;;;;;;;;;;;;;;;;;5039133;28;19920;-85
2022/12/12 15:27:56;;;;;;;;;;;;;;;;;;5035040;28;20522;-85
2022/12/12 15:30:42;;;;;;;;;;;;;;;;;;5026819;28;19917;-85
2022/12/12 15:33:29;;;;;;;;;;;;;;;;;;5039014;28;20459;-85
2022/12/12 15:36:15;;;;;;;;;;;;;;;;;;5045407;28;19927;-84
2022/12/12 15:39:02;;;;;;;;;;;;;;;;;;5042420;28;19917;-85
2022/12/12 15:41:48;;;;;;;;;;;;;;;;;;5036910;28;19913;-85
2022/12/12 15:44:35;;;;;;;;;;;;;;;;;;5037293;28;19913;-85
2022/12/12 15:47:21;;;;;;;;;;;;;;;;;;5037997;28;19924;-84
2022/12/12 15:50:08;;;;;;;;;;;;;;;;;;5038419;28;20359;-83
2022/12/12 15:52:54;;;;;;;;;;;;;;;;;;5047394;28;19928;-85
2022/12/12 15:55:44;;;;;;;;;;;;;;;;;;5047446;28;19998;-85
2022/12/12 15:58:30;;;;;;;;;;;;;;;;;;5044218;28;19925;-85
2022/12/12 16:01:20;;;;;;;;;;;;;;;;;;5050456;28;19909;-83
2022/12/12 16:04:07;;;;;;;;;;;;;;;;;;5047646;28;19913;-84
2022/12/12 16:06:53;;;;;;;;;;;;;;;;;;5045816;28;19917;-84
2022/12/12 16:09:40;;;;;;;;;;;;;;;;;;5040299;28;19909;-83
2022/12/12 16:12:26;;;;;;;;;;;;;;;;;;5036925;28;20369;-84
2022/12/12 16:15:13;;;;;;;;;;;;;;;;;;5045766;28;19931;-84
2022/12/12 16:17:59;;;;;;;;;;;;;;;;;;5045621;28;19917;-84
2022/12/12 16:20:46;;;;;;;;;;;;;;;;;;5037812;28;19909;-84
2022/12/12 16:23:32;;;;;;;;;;;;;;;;;;5047785;28;19913;-84
2022/12/12 16:26:22;;;;;;;;;;;;;;;;;;5034546;28;19913;-85
2022/12/12 16:29:08;;;;;;;;;;;;;;;;;;5033813;28;19932;-84
2022/12/12 16:31:55;;;;;;;;;;;;;;;;;;5036363;28;19932;-84
2022/12/12 16:34:41;;;;;;;;;;;;;;;;;;5039282;28;19915;-85
2022/12/12 16:37:28;;;;;;;;;;;;;;;;;;5029479;28;19948;-84
2022/12/12 16:40:14;;;;;;;;;;;;;;;;;;5042106;28;20395;-86
2022/12/12 16:43:01;;;;;;;;;;;;;;;;;;5047446;28;19935;-85
2022/12/12 16:45:50;;;;;;;;;;;;;;;;;;5048794;28;19917;-85
2022/12/12 16:48:36;;;;;;;;;;;;;;;;;;5046795;28;19917;-86
2022/12/12 16:51:23;;;;;;;;;;;;;;;;;;5050185;28;19927;-87
2022/12/12 16:54:10;;;;;;;;;;;;;;;;;;5069460;28;19931;-86
2022/12/12 16:56:57;;;;;;;;;;;;;;;;;;5072168;28;19909;-87
2022/12/12 16:59:43;;;;;;;;;;;;;;;;;;5052003;28;19983;-85
2022/12/12 17:02:31;;;;;;;;;;;;;;;;;;5053226;28;20281;-86
2022/12/12 17:05:17;;;;;;;;;;;;;;;;;;5047121;28;20253;-87
2022/12/12 17:08:05;;;;;;;;;;;;;;;;;;5046591;28;20700;-84
2022/12/12 17:10:52;;;;;;;;;;;;;;;;;;5046940;28;19913;-83
2022/12/12 17:13:38;;;;;;;;;;;;;;;;;;5051772;28;19917;-86
2022/12/12 17:16:25;;;;;;;;;;;;;;;;;;5046675;28;20291;-87
2022/12/12 17:19:11;;;;;;;;;;;;;;;;;;5029311;28;19913;-85
2022/12/12 17:21:58;;;;;;;;;;;;;;;;;;5042970;28;19917;-86
2022/12/12 17:24:44;;;;;;;;;;;;;;;;;;5042886;28;19933;-86
2022/12/12 17:27:31;;;;;;;;;;;;;;;;;;5045470;28;19912;-86
2022/12/12 17:30:17;;;;;;;;;;;;;;;;;;5041037;28;20257;-87
2022/12/12 17:33:04;;;;;;;;;;;;;;;;;;5043506;28;19917;-86
2022/12/12 17:35:50;;;;;;;;;;;;;;;;;;5045477;28;19917;-86
2022/12/12 17:38:37;;;;;;;;;;;;;;;;;;5049790;28;19928;-85
2022/12/12 17:41:23;;;;;;;;;;;;;;;;;;5042867;28;19913;-85
2022/12/12 17:44:10;;;;;;;;;;;;;;;;;;5044597;28;20502;-86
2022/12/12 17:46:56;;;;;;;;;;;;;;;;;;5042398;28;19913;-85
2022/12/12 17:49:43;;;;;;;;;;;;;;;;;;5041374;28;19909;-87
2022/12/12 17:52:29;;;;;;;;;;;;;;;;;;5041869;28;19932;-87
2022/12/12 17:55:16;;;;;;;;;;;;;;;;;;5031790;28;20364;-85
2022/12/12 17:58:02;;;;;;;;;;;;;;;;;;5047699;28;19975;-85
2022/12/12 18:00:49;;;;;;;;;;;;;;;;;;5047635;28;19917;-85
2022/12/12 18:03:36;;;;;;;;;;;;;;;;;;5046627;28;20365;-85
2022/12/12 18:06:22;;;;;;;;;;;;;;;;;;5055170;28;19927;-86
2022/12/12 18:09:09;;;;;;;;;;;;;;;;;;5051363;28;19912;-87
2022/12/12 18:11:55;;;;;;;;;;;;;;;;;;5060295;28;19928;-87
2022/12/12 18:14:41;;;;;;;;;;;;;;;;;;5052722;28;19913;-87
2022/12/12 18:17:28;;;;;;;;;;;;;;;;;;5037159;28;19916;-85
2022/12/12 18:20:14;;;;;;;;;;;;;;;;;;5037324;28;19913;-85
2022/12/12 18:23:01;;;;;;;;;;;;;;;;;;5042380;28;20370;-86
2022/12/12 18:25:48;;;;;;;;;;;;;;;;;;5015335;28;19913;-87
2022/12/12 18:28:34;;;;;;;;;;;;;;;;;;5031778;28;19920;-86
2022/12/12 18:31:21;;;;;;;;;;;;;;;;;;5039792;28;20004;-86
2022/12/12 18:34:07;;;;;;;;;;;;;;;;;;5030743;28;19913;-86
2022/12/12 18:36:54;;;;;;;;;;;;;;;;;;5050532;28;19921;-86
2022/12/12 18:39:40;;;;;;;;;;;;;;;;;;5051647;28;19913;-87
2022/12/12 18:42:27;;;;;;;;;;;;;;;;;;5047691;28;19917;-85
2022/12/12 18:45:15;;;;;;;;;;;;;;;;;;5049291;28;19917;-86
2022/12/12 18:48:01;;;;;;;;;;;;;;;;;;5025522;28;19913;-87
2022/12/12 18:50:48;;;;;;;;;;;;;;;;;;5042889;28;19921;-87
2022/12/12 18:53:34;;;;;;;;;;;;;;;;;;5055135;28;19912;-85
2022/12/12 18:56:21;;;;;;;;;;;;;;;;;;5054158;28;19909;-83
2022/12/12 18:59:07;;;;;;;;;;;;;;;;;;5056792;28;19931;-84
2022/12/12 19:01:53;;;;;;;;;;;;;;;;;;5053598;28;19909;-86
2022/12/12 19:04:43;;;;;;;;;;;;;;;;;;5053332;28;20315;-82
2022/12/12 19:07:30;;;;;;;;;;;;;;;;;;5048763;28;19913;-83
2022/12/12 19:10:16;;;;;;;;;;;;;;;;;;5047324;28;19933;-87
2022/12/12 19:13:03;;;;;;;;;;;;;;;;;;5036682;28;19917;-84
2022/12/12 19:15:49;;;;;;;;;;;;;;;;;;5038959;28;19924;-84
2022/12/12 19:18:36;;;;;;;;;;;;;;;;;;5051225;28;19928;-83
2022/12/12 19:21:22;;;;;;;;;;;;;;;;;;5048405;28;19919;-83
2022/12/12 19:24:10;;;;;;;;;;;;;;;;;;5040801;28;19914;-84
2022/12/12 19:26:57;;;;;;;;;;;;;;;;;;5045129;28;19919;-84
2022/12/12 19:29:43;;;;;;;;;;;;;;;;;;5053026;28;19913;-85
2022/12/12 19:32:30;;;;;;;;;;;;;;;;;;5050020;28;20290;-84
2022/12/12 19:35:16;;;;;;;;;;;;;;;;;;5048934;28;19920;-86
2022/12/12 19:38:03;;;;;;;;;;;;;;;;;;5049226;28;19935;-85
2022/12/12 19:40:49;;;;;;;;;;;;;;;;;;5032012;28;20371;-84
2022/12/12 19:43:36;;;;;;;;;;;;;;;;;;5045175;28;19916;-82
2022/12/12 19:46:23;;;;;;;;;;;;;;;;;;5045744;28;19917;-82
2022/12/12 19:49:09;;;;;;;;;;;;;;;;;;5027901;28;20285;-82
2022/12/12 19:51:56;;;;;;;;;;;;;;;;;;5032482;28;19925;-84
2022/12/12 19:54:42;;;;;;;;;;;;;;;;;;5044771;28;19919;-84
2022/12/12 19:57:29;;;;;;;;;;;;;;;;;;5052889;28;19924;-86
2022/12/12 20:00:18;;;;;;;;;;;;;;;;;;5044133;28;19923;-85
2022/12/12 20:03:05;;;;;;;;;;;;;;;;;;5046757;28;20017;-85